sensor_id;sensor_type;location;lat;lon;timestamp;P1;durP1;ratioP1;P2;durP2;ratioP2
6757;SDS011;3416;53.074;8.822;2022-09-09T00:01:58;22.58;;;17.35;;
6757;SDS011;3416;53.074;8.822;2022-09-09T00:04:31;21.48;;;19.13;;
6757;SDS011;3416;53.074;8.822;2022-09-09T00:07:01;19.52;;;17.35;;
6757;SDS011;3416;53.074;8.822;2022-09-09T00:09:31;24.50;;;22.00;;
6757;SDS011;3416;53.074;8.822;2022-09-09T00:12:08;24.58;;;20.40;;
6757;SDS011;3416;53.074;8.822;2022-09-09T00:14:39;25.20;;;21.90;;
6757;SDS011;3416;53.074;8.822;2022-09-09T00:17:16;25.30;;;21.83;;
6757;SDS011;3416;53.074;8.822;2022-09-09T00:19:56;23.20;;;20.60;;
6757;SDS011;3416;53.074;8.822;2022-09-09T00:22:28;25.65;;;22.48;;
6757;SDS011;3416;53.074;8.822;2022-09-09T00:24:58;27.40;;;23.17;;
6757;SDS011;3416;53.074;8.822;2022-09-09T00:27:36;20.55;;;18.52;;
6757;SDS011;3416;53.074;8.822;2022-09-09T00:30:13;21.58;;;19.23;;
6757;SDS011;3416;53.074;8.822;2022-09-09T00:32:44;31.65;;;24.30;;
6757;SDS011;3416;53.074;8.822;2022-09-09T00:35:16;30.67;;;24.20;;
6757;SDS011;3416;53.074;8.822;2022-09-09T00:37:47;36.42;;;27.65;;
6757;SDS011;3416;53.074;8.822;2022-09-09T00:40:18;28.50;;;23.58;;
6757;SDS011;3416;53.074;8.822;2022-09-09T00:42:52;28.17;;;22.95;;
6757;SDS011;3416;53.074;8.822;2022-09-09T00:45:40;29.05;;;23.48;;
6757;SDS011;3416;53.074;8.822;2022-09-09T00:48:20;26.02;;;22.00;;
6757;SDS011;3416;53.074;8.822;2022-09-09T00:50:55;24.95;;;21.33;;
6757;SDS011;3416;53.074;8.822;2022-09-09T00:53:29;25.45;;;22.48;;
6757;SDS011;3416;53.074;8.822;2022-09-09T00:56:05;31.30;;;25.05;;
6757;SDS011;3416;53.074;8.822;2022-09-09T00:58:40;29.10;;;24.25;;
6757;SDS011;3416;53.074;8.822;2022-09-09T01:01:09;29.05;;;22.15;;
6757;SDS011;3416;53.074;8.822;2022-09-09T01:03:39;29.00;;;25.90;;
6757;SDS011;3416;53.074;8.822;2022-09-09T01:06:16;24.38;;;21.27;;
6757;SDS011;3416;53.074;8.822;2022-09-09T01:08:55;33.67;;;24.38;;
6757;SDS011;3416;53.074;8.822;2022-09-09T01:11:32;34.45;;;27.10;;
6757;SDS011;3416;53.074;8.822;2022-09-09T01:14:13;30.20;;;23.67;;
6757;SDS011;3416;53.074;8.822;2022-09-09T01:16:45;27.45;;;23.77;;
6757;SDS011;3416;53.074;8.822;2022-09-09T01:19:15;31.55;;;25.63;;
6757;SDS011;3416;53.074;8.822;2022-09-09T01:21:53;27.08;;;23.25;;
6757;SDS011;3416;53.074;8.822;2022-09-09T01:24:27;30.75;;;26.40;;
6757;SDS011;3416;53.074;8.822;2022-09-09T01:27:04;25.90;;;22.83;;
6757;SDS011;3416;53.074;8.822;2022-09-09T01:29:33;30.30;;;24.83;;
6757;SDS011;3416;53.074;8.822;2022-09-09T01:32:01;33.88;;;25.23;;
6757;SDS011;3416;53.074;8.822;2022-09-09T01:34:51;25.15;;;22.42;;
6757;SDS011;3416;53.074;8.822;2022-09-09T01:37:18;26.30;;;23.33;;
6757;SDS011;3416;53.074;8.822;2022-09-09T01:39:45;22.92;;;20.05;;
6757;SDS011;3416;53.074;8.822;2022-09-09T01:42:15;26.42;;;20.70;;
6757;SDS011;3416;53.074;8.822;2022-09-09T01:44:44;25.35;;;22.65;;
6757;SDS011;3416;53.074;8.822;2022-09-09T01:47:10;29.60;;;22.45;;
6757;SDS011;3416;53.074;8.822;2022-09-09T01:49:37;27.63;;;24.05;;
6757;SDS011;3416;53.074;8.822;2022-09-09T01:52:04;23.77;;;20.95;;
6757;SDS011;3416;53.074;8.822;2022-09-09T01:54:33;28.58;;;21.67;;
6757;SDS011;3416;53.074;8.822;2022-09-09T01:57:02;28.52;;;22.23;;
6757;SDS011;3416;53.074;8.822;2022-09-09T01:59:44;20.52;;;18.42;;
6757;SDS011;3416;53.074;8.822;2022-09-09T02:02:17;27.20;;;21.02;;
6757;SDS011;3416;53.074;8.822;2022-09-09T02:04:47;22.15;;;19.75;;
6757;SDS011;3416;53.074;8.822;2022-09-09T02:07:30;22.98;;;20.00;;
6757;SDS011;3416;53.074;8.822;2022-09-09T02:10:05;20.35;;;18.38;;
6757;SDS011;3416;53.074;8.822;2022-09-09T02:12:38;25.65;;;21.30;;
6757;SDS011;3416;53.074;8.822;2022-09-09T02:15:11;25.02;;;20.88;;
6757;SDS011;3416;53.074;8.822;2022-09-09T02:17:44;27.83;;;21.15;;
6757;SDS011;3416;53.074;8.822;2022-09-09T02:20:13;23.80;;;19.05;;
6757;SDS011;3416;53.074;8.822;2022-09-09T02:22:42;21.70;;;19.42;;
6757;SDS011;3416;53.074;8.822;2022-09-09T02:25:12;26.27;;;20.67;;
6757;SDS011;3416;53.074;8.822;2022-09-09T02:27:42;22.70;;;19.23;;
6757;SDS011;3416;53.074;8.822;2022-09-09T02:30:13;25.77;;;21.00;;
6757;SDS011;3416;53.074;8.822;2022-09-09T02:32:41;20.30;;;16.95;;
6757;SDS011;3416;53.074;8.822;2022-09-09T02:35:10;21.23;;;18.58;;
6757;SDS011;3416;53.074;8.822;2022-09-09T02:37:40;23.67;;;18.73;;
6757;SDS011;3416;53.074;8.822;2022-09-09T02:40:09;25.65;;;19.92;;
6757;SDS011;3416;53.074;8.822;2022-09-09T02:42:38;23.23;;;18.50;;
6757;SDS011;3416;53.074;8.822;2022-09-09T02:45:06;29.58;;;21.35;;
6757;SDS011;3416;53.074;8.822;2022-09-09T02:47:37;23.15;;;18.10;;
6757;SDS011;3416;53.074;8.822;2022-09-09T02:50:12;23.73;;;18.15;;
6757;SDS011;3416;53.074;8.822;2022-09-09T02:52:51;19.95;;;17.85;;
6757;SDS011;3416;53.074;8.822;2022-09-09T02:55:30;23.63;;;16.92;;
6757;SDS011;3416;53.074;8.822;2022-09-09T02:58:04;19.75;;;17.65;;
6757;SDS011;3416;53.074;8.822;2022-09-09T03:00:35;18.80;;;15.63;;
6757;SDS011;3416;53.074;8.822;2022-09-09T03:03:03;18.90;;;16.90;;
6757;SDS011;3416;53.074;8.822;2022-09-09T03:05:31;17.00;;;15.27;;
6757;SDS011;3416;53.074;8.822;2022-09-09T03:07:58;17.13;;;15.32;;
6757;SDS011;3416;53.074;8.822;2022-09-09T03:10:31;19.45;;;15.55;;
6757;SDS011;3416;53.074;8.822;2022-09-09T03:12:58;19.65;;;15.95;;
6757;SDS011;3416;53.074;8.822;2022-09-09T03:15:25;17.33;;;14.50;;
6757;SDS011;3416;53.074;8.822;2022-09-09T03:17:54;18.65;;;15.30;;
6757;SDS011;3416;53.074;8.822;2022-09-09T03:20:23;17.63;;;15.00;;
6757;SDS011;3416;53.074;8.822;2022-09-09T03:22:51;17.02;;;15.23;;
6757;SDS011;3416;53.074;8.822;2022-09-09T03:25:18;20.17;;;15.50;;
6757;SDS011;3416;53.074;8.822;2022-09-09T03:27:48;25.10;;;15.82;;
6757;SDS011;3416;53.074;8.822;2022-09-09T03:30:18;17.30;;;15.23;;
6757;SDS011;3416;53.074;8.822;2022-09-09T03:32:45;15.30;;;13.75;;
6757;SDS011;3416;53.074;8.822;2022-09-09T03:35:11;15.98;;;13.73;;
6757;SDS011;3416;53.074;8.822;2022-09-09T03:37:40;16.92;;;14.48;;
6757;SDS011;3416;53.074;8.822;2022-09-09T03:40:07;16.42;;;13.85;;
6757;SDS011;3416;53.074;8.822;2022-09-09T03:42:35;14.23;;;12.70;;
6757;SDS011;3416;53.074;8.822;2022-09-09T03:45:03;15.02;;;12.73;;
6757;SDS011;3416;53.074;8.822;2022-09-09T03:47:31;14.98;;;12.10;;
6757;SDS011;3416;53.074;8.822;2022-09-09T03:49:58;13.20;;;11.80;;
6757;SDS011;3416;53.074;8.822;2022-09-09T03:52:25;14.80;;;11.65;;
6757;SDS011;3416;53.074;8.822;2022-09-09T03:54:53;12.40;;;10.57;;
6757;SDS011;3416;53.074;8.822;2022-09-09T03:57:22;13.30;;;11.00;;
6757;SDS011;3416;53.074;8.822;2022-09-09T03:59:48;12.45;;;9.95;;
6757;SDS011;3416;53.074;8.822;2022-09-09T04:02:15;12.88;;;10.93;;
6757;SDS011;3416;53.074;8.822;2022-09-09T04:04:42;14.95;;;10.60;;
6757;SDS011;3416;53.074;8.822;2022-09-09T04:07:09;11.35;;;10.25;;
6757;SDS011;3416;53.074;8.822;2022-09-09T04:09:36;11.38;;;10.00;;
6757;SDS011;3416;53.074;8.822;2022-09-09T04:12:05;11.63;;;10.15;;
6757;SDS011;3416;53.074;8.822;2022-09-09T04:14:32;10.95;;;9.00;;
6757;SDS011;3416;53.074;8.822;2022-09-09T04:16:59;14.32;;;8.75;;
6757;SDS011;3416;53.074;8.822;2022-09-09T04:19:29;13.32;;;10.10;;
6757;SDS011;3416;53.074;8.822;2022-09-09T04:21:56;10.57;;;9.45;;
6757;SDS011;3416;53.074;8.822;2022-09-09T04:24:24;12.85;;;10.63;;
6757;SDS011;3416;53.074;8.822;2022-09-09T04:26:54;17.42;;;9.98;;
6757;SDS011;3416;53.074;8.822;2022-09-09T04:29:22;10.27;;;8.05;;
6757;SDS011;3416;53.074;8.822;2022-09-09T04:31:49;16.83;;;8.55;;
6757;SDS011;3416;53.074;8.822;2022-09-09T04:34:16;9.38;;;7.97;;
6757;SDS011;3416;53.074;8.822;2022-09-09T04:36:43;8.48;;;7.00;;
6757;SDS011;3416;53.074;8.822;2022-09-09T04:39:10;10.90;;;8.70;;
6757;SDS011;3416;53.074;8.822;2022-09-09T04:41:37;8.00;;;7.18;;
6757;SDS011;3416;53.074;8.822;2022-09-09T04:44:04;9.02;;;8.10;;
6757;SDS011;3416;53.074;8.822;2022-09-09T04:46:34;12.52;;;7.72;;
6757;SDS011;3416;53.074;8.822;2022-09-09T04:49:00;10.98;;;6.97;;
6757;SDS011;3416;53.074;8.822;2022-09-09T04:51:27;10.13;;;7.35;;
6757;SDS011;3416;53.074;8.822;2022-09-09T04:53:56;11.40;;;8.45;;
6757;SDS011;3416;53.074;8.822;2022-09-09T04:56:23;11.05;;;7.85;;
6757;SDS011;3416;53.074;8.822;2022-09-09T04:58:52;8.20;;;7.13;;
6757;SDS011;3416;53.074;8.822;2022-09-09T05:01:21;13.07;;;7.22;;
6757;SDS011;3416;53.074;8.822;2022-09-09T05:03:50;9.13;;;8.23;;
6757;SDS011;3416;53.074;8.822;2022-09-09T05:06:18;10.60;;;7.78;;
6757;SDS011;3416;53.074;8.822;2022-09-09T05:08:47;8.40;;;7.60;;
6757;SDS011;3416;53.074;8.822;2022-09-09T05:11:15;9.57;;;8.68;;
6757;SDS011;3416;53.074;8.822;2022-09-09T05:13:43;13.25;;;8.18;;
6757;SDS011;3416;53.074;8.822;2022-09-09T05:16:11;11.77;;;7.13;;
6757;SDS011;3416;53.074;8.822;2022-09-09T05:18:37;12.02;;;8.55;;
6757;SDS011;3416;53.074;8.822;2022-09-09T05:21:07;11.63;;;8.77;;
6757;SDS011;3416;53.074;8.822;2022-09-09T05:23:34;9.23;;;6.75;;
6757;SDS011;3416;53.074;8.822;2022-09-09T05:26:02;7.55;;;6.75;;
6757;SDS011;3416;53.074;8.822;2022-09-09T05:28:30;7.13;;;6.40;;
6757;SDS011;3416;53.074;8.822;2022-09-09T05:30:57;10.95;;;7.35;;
6757;SDS011;3416;53.074;8.822;2022-09-09T05:33:25;12.48;;;8.70;;
6757;SDS011;3416;53.074;8.822;2022-09-09T05:35:56;11.85;;;8.65;;
6757;SDS011;3416;53.074;8.822;2022-09-09T05:38:25;15.60;;;10.45;;
6757;SDS011;3416;53.074;8.822;2022-09-09T05:40:52;17.77;;;9.23;;
6757;SDS011;3416;53.074;8.822;2022-09-09T05:43:19;8.73;;;7.57;;
6757;SDS011;3416;53.074;8.822;2022-09-09T05:45:46;8.52;;;7.30;;
6757;SDS011;3416;53.074;8.822;2022-09-09T05:48:14;9.35;;;8.02;;
6757;SDS011;3416;53.074;8.822;2022-09-09T05:50:41;9.27;;;6.75;;
6757;SDS011;3416;53.074;8.822;2022-09-09T05:53:10;7.05;;;6.25;;
6757;SDS011;3416;53.074;8.822;2022-09-09T05:55:38;11.82;;;6.53;;
6757;SDS011;3416;53.074;8.822;2022-09-09T05:58:05;9.07;;;7.88;;
6757;SDS011;3416;53.074;8.822;2022-09-09T06:00:32;10.18;;;6.78;;
6757;SDS011;3416;53.074;8.822;2022-09-09T06:02:59;12.23;;;6.47;;
6757;SDS011;3416;53.074;8.822;2022-09-09T06:05:26;11.47;;;6.13;;
6757;SDS011;3416;53.074;8.822;2022-09-09T06:07:53;6.93;;;4.53;;
6757;SDS011;3416;53.074;8.822;2022-09-09T06:10:20;9.67;;;5.20;;
6757;SDS011;3416;53.074;8.822;2022-09-09T06:12:51;8.00;;;4.17;;
6757;SDS011;3416;53.074;8.822;2022-09-09T06:15:19;7.60;;;4.60;;
6757;SDS011;3416;53.074;8.822;2022-09-09T06:17:46;7.47;;;4.40;;
6757;SDS011;3416;53.074;8.822;2022-09-09T06:20:19;7.23;;;4.33;;
6757;SDS011;3416;53.074;8.822;2022-09-09T06:22:47;5.67;;;4.60;;
6757;SDS011;3416;53.074;8.822;2022-09-09T06:25:14;6.30;;;4.37;;
6757;SDS011;3416;53.074;8.822;2022-09-09T06:27:42;8.80;;;5.87;;
6757;SDS011;3416;53.074;8.822;2022-09-09T06:30:10;6.30;;;4.73;;
6757;SDS011;3416;53.074;8.822;2022-09-09T06:32:38;7.27;;;6.03;;
6757;SDS011;3416;53.074;8.822;2022-09-09T06:35:06;5.50;;;3.70;;
6757;SDS011;3416;53.074;8.822;2022-09-09T06:37:33;6.47;;;5.10;;
6757;SDS011;3416;53.074;8.822;2022-09-09T06:40:03;5.17;;;3.80;;
6757;SDS011;3416;53.074;8.822;2022-09-09T06:42:32;6.07;;;4.30;;
6757;SDS011;3416;53.074;8.822;2022-09-09T06:44:59;7.10;;;4.60;;
6757;SDS011;3416;53.074;8.822;2022-09-09T06:47:29;5.00;;;4.43;;
6757;SDS011;3416;53.074;8.822;2022-09-09T06:49:56;11.03;;;5.20;;
6757;SDS011;3416;53.074;8.822;2022-09-09T06:52:23;9.17;;;5.50;;
6757;SDS011;3416;53.074;8.822;2022-09-09T06:54:50;8.87;;;5.00;;
6757;SDS011;3416;53.074;8.822;2022-09-09T06:57:18;11.33;;;5.13;;
6757;SDS011;3416;53.074;8.822;2022-09-09T06:59:45;9.20;;;4.70;;
6757;SDS011;3416;53.074;8.822;2022-09-09T07:02:12;9.10;;;4.13;;
6757;SDS011;3416;53.074;8.822;2022-09-09T07:04:41;11.00;;;4.17;;
6757;SDS011;3416;53.074;8.822;2022-09-09T07:07:08;8.10;;;4.23;;
6757;SDS011;3416;53.074;8.822;2022-09-09T07:09:37;6.17;;;3.77;;
6757;SDS011;3416;53.074;8.822;2022-09-09T07:12:05;4.13;;;3.67;;
6757;SDS011;3416;53.074;8.822;2022-09-09T07:14:32;5.47;;;4.40;;
6757;SDS011;3416;53.074;8.822;2022-09-09T07:16:59;5.93;;;4.00;;
6757;SDS011;3416;53.074;8.822;2022-09-09T07:19:26;5.63;;;3.20;;
6757;SDS011;3416;53.074;8.822;2022-09-09T07:21:55;3.60;;;3.10;;
6757;SDS011;3416;53.074;8.822;2022-09-09T07:24:21;4.63;;;3.50;;
6757;SDS011;3416;53.074;8.822;2022-09-09T07:26:48;8.40;;;3.67;;
6757;SDS011;3416;53.074;8.822;2022-09-09T07:29:17;6.37;;;3.87;;
6757;SDS011;3416;53.074;8.822;2022-09-09T07:31:44;10.07;;;3.90;;
6757;SDS011;3416;53.074;8.822;2022-09-09T07:34:11;8.00;;;3.50;;
6757;SDS011;3416;53.074;8.822;2022-09-09T07:36:38;3.97;;;2.83;;
6757;SDS011;3416;53.074;8.822;2022-09-09T07:39:09;4.77;;;3.90;;
6757;SDS011;3416;53.074;8.822;2022-09-09T07:41:38;5.80;;;3.07;;
6757;SDS011;3416;53.074;8.822;2022-09-09T07:44:07;5.20;;;3.03;;
6757;SDS011;3416;53.074;8.822;2022-09-09T07:46:35;9.10;;;3.57;;
6757;SDS011;3416;53.074;8.822;2022-09-09T07:49:04;5.03;;;3.07;;
6757;SDS011;3416;53.074;8.822;2022-09-09T07:51:35;9.10;;;3.33;;
6757;SDS011;3416;53.074;8.822;2022-09-09T07:54:04;10.10;;;3.37;;
6757;SDS011;3416;53.074;8.822;2022-09-09T07:56:35;5.70;;;2.80;;
6757;SDS011;3416;53.074;8.822;2022-09-09T07:59:03;4.87;;;2.63;;
6757;SDS011;3416;53.074;8.822;2022-09-09T08:01:32;4.37;;;2.70;;
6757;SDS011;3416;53.074;8.822;2022-09-09T08:04:03;5.03;;;3.10;;
6757;SDS011;3416;53.074;8.822;2022-09-09T08:06:35;6.40;;;2.83;;
6757;SDS011;3416;53.074;8.822;2022-09-09T08:09:03;5.73;;;3.73;;
6757;SDS011;3416;53.074;8.822;2022-09-09T08:11:30;7.17;;;2.57;;
6757;SDS011;3416;53.074;8.822;2022-09-09T08:13:59;8.13;;;2.80;;
6757;SDS011;3416;53.074;8.822;2022-09-09T08:16:27;5.53;;;3.20;;
6757;SDS011;3416;53.074;8.822;2022-09-09T08:18:55;3.70;;;2.70;;
6757;SDS011;3416;53.074;8.822;2022-09-09T08:21:23;4.63;;;2.97;;
6757;SDS011;3416;53.074;8.822;2022-09-09T08:23:53;11.33;;;2.60;;
6757;SDS011;3416;53.074;8.822;2022-09-09T08:26:22;8.80;;;2.77;;
6757;SDS011;3416;53.074;8.822;2022-09-09T08:28:51;4.40;;;2.60;;
6757;SDS011;3416;53.074;8.822;2022-09-09T08:31:27;6.40;;;2.63;;
6757;SDS011;3416;53.074;8.822;2022-09-09T08:33:56;5.40;;;2.60;;
6757;SDS011;3416;53.074;8.822;2022-09-09T08:36:25;3.20;;;2.20;;
6757;SDS011;3416;53.074;8.822;2022-09-09T08:38:54;4.20;;;2.63;;
6757;SDS011;3416;53.074;8.822;2022-09-09T08:41:35;4.53;;;2.77;;
6757;SDS011;3416;53.074;8.822;2022-09-09T08:44:13;5.87;;;2.73;;
6757;SDS011;3416;53.074;8.822;2022-09-09T08:46:50;7.90;;;2.70;;
6757;SDS011;3416;53.074;8.822;2022-09-09T08:49:34;4.07;;;2.70;;
6757;SDS011;3416;53.074;8.822;2022-09-09T08:52:12;3.67;;;3.27;;
6757;SDS011;3416;53.074;8.822;2022-09-09T08:54:43;9.60;;;3.90;;
6757;SDS011;3416;53.074;8.822;2022-09-09T08:57:11;6.33;;;2.87;;
6757;SDS011;3416;53.074;8.822;2022-09-09T08:59:42;8.10;;;2.80;;
6757;SDS011;3416;53.074;8.822;2022-09-09T09:02:13;4.43;;;2.17;;
6757;SDS011;3416;53.074;8.822;2022-09-09T09:04:47;4.47;;;2.50;;
6757;SDS011;3416;53.074;8.822;2022-09-09T09:07:24;5.77;;;2.60;;
6757;SDS011;3416;53.074;8.822;2022-09-09T09:10:01;5.53;;;2.53;;
6757;SDS011;3416;53.074;8.822;2022-09-09T09:12:35;4.33;;;2.30;;
6757;SDS011;3416;53.074;8.822;2022-09-09T09:15:09;5.60;;;2.30;;
6757;SDS011;3416;53.074;8.822;2022-09-09T09:17:44;3.53;;;1.80;;
6757;SDS011;3416;53.074;8.822;2022-09-09T09:20:12;9.27;;;3.07;;
6757;SDS011;3416;53.074;8.822;2022-09-09T09:22:43;2.87;;;2.30;;
6757;SDS011;3416;53.074;8.822;2022-09-09T09:25:16;5.33;;;2.47;;
6757;SDS011;3416;53.074;8.822;2022-09-09T09:27:47;4.63;;;3.30;;
6757;SDS011;3416;53.074;8.822;2022-09-09T09:30:21;4.00;;;2.13;;
6757;SDS011;3416;53.074;8.822;2022-09-09T09:32:51;3.83;;;1.87;;
6757;SDS011;3416;53.074;8.822;2022-09-09T09:35:21;3.43;;;1.70;;
6757;SDS011;3416;53.074;8.822;2022-09-09T09:37:48;3.53;;;2.40;;
6757;SDS011;3416;53.074;8.822;2022-09-09T09:40:16;6.33;;;2.20;;
6757;SDS011;3416;53.074;8.822;2022-09-09T09:42:48;2.30;;;1.87;;
6757;SDS011;3416;53.074;8.822;2022-09-09T09:45:23;3.87;;;1.90;;
6757;SDS011;3416;53.074;8.822;2022-09-09T09:48:01;4.77;;;2.23;;
6757;SDS011;3416;53.074;8.822;2022-09-09T09:50:29;2.33;;;1.70;;
6757;SDS011;3416;53.074;8.822;2022-09-09T09:52:58;3.73;;;2.57;;
6757;SDS011;3416;53.074;8.822;2022-09-09T09:55:29;5.23;;;1.90;;
6757;SDS011;3416;53.074;8.822;2022-09-09T09:58:01;6.07;;;1.97;;
6757;SDS011;3416;53.074;8.822;2022-09-09T10:00:29;3.30;;;2.27;;
6757;SDS011;3416;53.074;8.822;2022-09-09T10:02:56;4.90;;;2.53;;
6757;SDS011;3416;53.074;8.822;2022-09-09T10:05:27;4.20;;;2.03;;
6757;SDS011;3416;53.074;8.822;2022-09-09T10:08:04;3.63;;;2.30;;
6757;SDS011;3416;53.074;8.822;2022-09-09T10:13:27;4.07;;;2.47;;
6757;SDS011;3416;53.074;8.822;2022-09-09T10:16:05;5.10;;;3.50;;
6757;SDS011;3416;53.074;8.822;2022-09-09T10:18:48;4.80;;;3.07;;
6757;SDS011;3416;53.074;8.822;2022-09-09T10:21:36;5.60;;;2.80;;
6757;SDS011;3416;53.074;8.822;2022-09-09T10:24:31;4.37;;;2.63;;
6757;SDS011;3416;53.074;8.822;2022-09-09T10:27:09;4.13;;;3.00;;
6757;SDS011;3416;53.074;8.822;2022-09-09T10:29:47;9.40;;;3.13;;
6757;SDS011;3416;53.074;8.822;2022-09-09T10:32:30;4.60;;;2.40;;
6757;SDS011;3416;53.074;8.822;2022-09-09T10:35:04;4.80;;;3.00;;
6757;SDS011;3416;53.074;8.822;2022-09-09T10:37:48;10.20;;;3.53;;
6757;SDS011;3416;53.074;8.822;2022-09-09T10:40:40;3.97;;;2.93;;
6757;SDS011;3416;53.074;8.822;2022-09-09T10:43:13;6.10;;;4.73;;
6757;SDS011;3416;53.074;8.822;2022-09-09T10:45:55;4.10;;;3.00;;
6757;SDS011;3416;53.074;8.822;2022-09-09T10:48:31;4.27;;;3.57;;
6757;SDS011;3416;53.074;8.822;2022-09-09T10:51:14;9.60;;;5.50;;
6757;SDS011;3416;53.074;8.822;2022-09-09T10:53:52;5.20;;;3.63;;
6757;SDS011;3416;53.074;8.822;2022-09-09T10:56:29;6.63;;;3.50;;
6757;SDS011;3416;53.074;8.822;2022-09-09T10:58:58;7.50;;;3.37;;
6757;SDS011;3416;53.074;8.822;2022-09-09T11:01:33;4.20;;;3.60;;
6757;SDS011;3416;53.074;8.822;2022-09-09T11:04:04;5.97;;;3.27;;
6757;SDS011;3416;53.074;8.822;2022-09-09T11:06:37;5.40;;;3.47;;
6757;SDS011;3416;53.074;8.822;2022-09-09T11:09:13;5.90;;;3.70;;
6757;SDS011;3416;53.074;8.822;2022-09-09T11:11:45;4.53;;;3.23;;
6757;SDS011;3416;53.074;8.822;2022-09-09T11:14:19;5.50;;;2.73;;
6757;SDS011;3416;53.074;8.822;2022-09-09T11:16:50;4.13;;;2.80;;
6757;SDS011;3416;53.074;8.822;2022-09-09T11:19:21;6.77;;;2.70;;
6757;SDS011;3416;53.074;8.822;2022-09-09T11:21:54;4.10;;;2.53;;
6757;SDS011;3416;53.074;8.822;2022-09-09T11:24:25;7.87;;;6.17;;
6757;SDS011;3416;53.074;8.822;2022-09-09T11:26:58;5.50;;;2.83;;
6757;SDS011;3416;53.074;8.822;2022-09-09T11:29:35;4.93;;;2.97;;
6757;SDS011;3416;53.074;8.822;2022-09-09T11:32:24;6.80;;;3.60;;
6757;SDS011;3416;53.074;8.822;2022-09-09T11:35:02;6.33;;;2.80;;
6757;SDS011;3416;53.074;8.822;2022-09-09T11:37:59;5.70;;;2.50;;
6757;SDS011;3416;53.074;8.822;2022-09-09T11:40:45;6.73;;;3.30;;
6757;SDS011;3416;53.074;8.822;2022-09-09T11:43:13;6.50;;;3.20;;
6757;SDS011;3416;53.074;8.822;2022-09-09T11:45:42;5.73;;;3.10;;
6757;SDS011;3416;53.074;8.822;2022-09-09T11:48:22;11.80;;;3.37;;
6757;SDS011;3416;53.074;8.822;2022-09-09T11:50:58;6.57;;;3.10;;
6757;SDS011;3416;53.074;8.822;2022-09-09T11:53:27;5.60;;;3.50;;
6757;SDS011;3416;53.074;8.822;2022-09-09T11:56:07;8.00;;;3.00;;
6757;SDS011;3416;53.074;8.822;2022-09-09T11:58:38;6.90;;;3.40;;
6757;SDS011;3416;53.074;8.822;2022-09-09T12:01:26;5.43;;;3.40;;
6757;SDS011;3416;53.074;8.822;2022-09-09T12:04:05;5.30;;;3.63;;
6757;SDS011;3416;53.074;8.822;2022-09-09T12:06:52;8.47;;;4.27;;
6757;SDS011;3416;53.074;8.822;2022-09-09T12:09:23;4.70;;;3.73;;
6757;SDS011;3416;53.074;8.822;2022-09-09T12:12:07;6.77;;;4.23;;
6757;SDS011;3416;53.074;8.822;2022-09-09T12:14:54;8.57;;;4.67;;
6757;SDS011;3416;53.074;8.822;2022-09-09T12:17:41;7.80;;;4.63;;
6757;SDS011;3416;53.074;8.822;2022-09-09T12:20:11;7.73;;;5.27;;
6757;SDS011;3416;53.074;8.822;2022-09-09T12:22:44;7.90;;;5.63;;
6757;SDS011;3416;53.074;8.822;2022-09-09T12:25:22;11.90;;;6.30;;
6757;SDS011;3416;53.074;8.822;2022-09-09T12:27:58;9.90;;;5.77;;
6757;SDS011;3416;53.074;8.822;2022-09-09T12:30:31;11.43;;;8.13;;
6757;SDS011;3416;53.074;8.822;2022-09-09T12:33:06;16.90;;;8.23;;
6757;SDS011;3416;53.074;8.822;2022-09-09T12:35:37;18.87;;;8.90;;
6757;SDS011;3416;53.074;8.822;2022-09-09T12:38:04;8.70;;;6.33;;
6757;SDS011;3416;53.074;8.822;2022-09-09T12:40:36;7.40;;;6.03;;
6757;SDS011;3416;53.074;8.822;2022-09-09T12:43:17;7.93;;;5.83;;
6757;SDS011;3416;53.074;8.822;2022-09-09T12:45:46;7.87;;;5.97;;
6757;SDS011;3416;53.074;8.822;2022-09-09T12:48:15;14.40;;;6.20;;
6757;SDS011;3416;53.074;8.822;2022-09-09T12:50:45;8.60;;;6.30;;
6757;SDS011;3416;53.074;8.822;2022-09-09T12:53:15;5.73;;;4.97;;
6757;SDS011;3416;53.074;8.822;2022-09-09T12:55:52;8.80;;;3.70;;
6757;SDS011;3416;53.074;8.822;2022-09-09T12:58:23;7.73;;;3.63;;
6757;SDS011;3416;53.074;8.822;2022-09-09T13:00:52;10.00;;;3.53;;
6757;SDS011;3416;53.074;8.822;2022-09-09T13:03:21;6.70;;;3.70;;
6757;SDS011;3416;53.074;8.822;2022-09-09T13:05:50;8.83;;;4.80;;
6757;SDS011;3416;53.074;8.822;2022-09-09T13:08:18;8.37;;;5.30;;
6757;SDS011;3416;53.074;8.822;2022-09-09T13:10:47;10.77;;;5.10;;
6757;SDS011;3416;53.074;8.822;2022-09-09T13:13:20;9.30;;;4.00;;
6757;SDS011;3416;53.074;8.822;2022-09-09T13:15:52;8.83;;;4.13;;
6757;SDS011;3416;53.074;8.822;2022-09-09T13:18:21;6.20;;;4.23;;
6757;SDS011;3416;53.074;8.822;2022-09-09T13:20:50;4.63;;;3.93;;
6757;SDS011;3416;53.074;8.822;2022-09-09T13:23:18;5.30;;;4.30;;
6757;SDS011;3416;53.074;8.822;2022-09-09T13:25:53;6.90;;;3.40;;
6757;SDS011;3416;53.074;8.822;2022-09-09T13:28:21;5.40;;;3.20;;
6757;SDS011;3416;53.074;8.822;2022-09-09T13:30:55;11.00;;;3.83;;
6757;SDS011;3416;53.074;8.822;2022-09-09T13:33:29;4.23;;;3.07;;
6757;SDS011;3416;53.074;8.822;2022-09-09T13:35:58;6.40;;;3.13;;
6757;SDS011;3416;53.074;8.822;2022-09-09T13:38:29;9.50;;;3.40;;
6757;SDS011;3416;53.074;8.822;2022-09-09T13:41:00;9.90;;;3.20;;
6757;SDS011;3416;53.074;8.822;2022-09-09T13:43:31;7.80;;;3.67;;
6757;SDS011;3416;53.074;8.822;2022-09-09T13:46:23;6.40;;;3.30;;
6757;SDS011;3416;53.074;8.822;2022-09-09T13:48:54;4.07;;;3.67;;
6757;SDS011;3416;53.074;8.822;2022-09-09T13:51:26;5.20;;;3.50;;
6757;SDS011;3416;53.074;8.822;2022-09-09T13:53:58;6.20;;;4.20;;
6757;SDS011;3416;53.074;8.822;2022-09-09T13:56:26;4.90;;;3.10;;
6757;SDS011;3416;53.074;8.822;2022-09-09T13:58:55;12.30;;;4.20;;
6757;SDS011;3416;53.074;8.822;2022-09-09T14:01:23;6.67;;;3.30;;
6757;SDS011;3416;53.074;8.822;2022-09-09T14:03:50;6.10;;;3.67;;
6757;SDS011;3416;53.074;8.822;2022-09-09T14:06:18;6.43;;;3.03;;
6757;SDS011;3416;53.074;8.822;2022-09-09T14:08:46;8.73;;;2.60;;
6757;SDS011;3416;53.074;8.822;2022-09-09T14:11:14;11.70;;;3.23;;
6757;SDS011;3416;53.074;8.822;2022-09-09T14:13:41;3.20;;;2.80;;
6757;SDS011;3416;53.074;8.822;2022-09-09T14:16:09;6.40;;;4.03;;
6757;SDS011;3416;53.074;8.822;2022-09-09T14:18:36;6.40;;;3.13;;
6757;SDS011;3416;53.074;8.822;2022-09-09T14:21:04;5.90;;;3.83;;
6757;SDS011;3416;53.074;8.822;2022-09-09T14:23:31;10.33;;;3.70;;
6757;SDS011;3416;53.074;8.822;2022-09-09T14:25:57;4.60;;;3.30;;
6757;SDS011;3416;53.074;8.822;2022-09-09T14:28:27;5.33;;;3.73;;
6757;SDS011;3416;53.074;8.822;2022-09-09T14:30:54;5.47;;;4.83;;
6757;SDS011;3416;53.074;8.822;2022-09-09T14:33:23;6.40;;;4.53;;
6757;SDS011;3416;53.074;8.822;2022-09-09T14:35:55;6.80;;;4.40;;
6757;SDS011;3416;53.074;8.822;2022-09-09T14:38:22;5.30;;;3.53;;
6757;SDS011;3416;53.074;8.822;2022-09-09T14:40:49;8.43;;;4.13;;
6757;SDS011;3416;53.074;8.822;2022-09-09T14:43:16;5.50;;;4.10;;
6757;SDS011;3416;53.074;8.822;2022-09-09T14:45:43;6.33;;;4.40;;
6757;SDS011;3416;53.074;8.822;2022-09-09T14:48:10;3.90;;;3.40;;
6757;SDS011;3416;53.074;8.822;2022-09-09T14:50:39;12.50;;;4.93;;
6757;SDS011;3416;53.074;8.822;2022-09-09T14:53:06;5.83;;;5.37;;
6757;SDS011;3416;53.074;8.822;2022-09-09T14:55:33;7.70;;;6.97;;
6757;SDS011;3416;53.074;8.822;2022-09-09T14:58:00;7.57;;;6.23;;
6757;SDS011;3416;53.074;8.822;2022-09-09T15:00:27;10.57;;;4.33;;
6757;SDS011;3416;53.074;8.822;2022-09-09T15:02:54;11.23;;;6.13;;
6757;SDS011;3416;53.074;8.822;2022-09-09T15:05:21;9.63;;;4.57;;
6757;SDS011;3416;53.074;8.822;2022-09-09T15:07:50;7.13;;;3.70;;
6757;SDS011;3416;53.074;8.822;2022-09-09T15:10:17;7.70;;;4.30;;
6757;SDS011;3416;53.074;8.822;2022-09-09T15:12:44;6.63;;;4.77;;
6757;SDS011;3416;53.074;8.822;2022-09-09T15:15:11;8.83;;;4.70;;
6757;SDS011;3416;53.074;8.822;2022-09-09T15:17:38;9.77;;;4.73;;
6757;SDS011;3416;53.074;8.822;2022-09-09T15:20:06;9.70;;;5.10;;
6757;SDS011;3416;53.074;8.822;2022-09-09T15:22:33;7.47;;;4.90;;
6757;SDS011;3416;53.074;8.822;2022-09-09T15:25:03;9.53;;;5.70;;
6757;SDS011;3416;53.074;8.822;2022-09-09T15:27:31;10.17;;;4.83;;
6757;SDS011;3416;53.074;8.822;2022-09-09T15:29:59;9.63;;;4.37;;
6757;SDS011;3416;53.074;8.822;2022-09-09T15:32:27;11.10;;;7.00;;